createdAt,value
2022-12-09T00:01:07.139Z,16.27
2022-12-09T00:06:14.035Z,18.10
2022-12-09T00:11:17.979Z,18.10
2022-12-09T00:16:22.162Z,16.20
2022-12-09T00:21:30.589Z,15.03
2022-12-09T00:26:34.669Z,22.40
2022-12-09T00:31:39.492Z,21.77
2022-12-09T00:36:44.177Z,18.80
2022-12-09T00:41:49.245Z,20.60
2022-12-09T00:46:52.415Z,21.37
2022-12-09T00:51:59.893Z,21.30
2022-12-09T00:57:03.301Z,20.43
2022-12-09T01:02:06.368Z,25.10
2022-12-09T01:07:12.492Z,24.27
2022-12-09T01:12:16.285Z,27.83
2022-12-09T01:17:19.525Z,24.97
2022-12-09T01:22:23.863Z,24.33
2022-12-09T01:27:27.695Z,23.70
2022-12-09T01:32:31.133Z,24.47
2022-12-09T01:37:38.374Z,22.33
2022-12-09T01:42:41.399Z,21.73
2022-12-09T01:47:44.587Z,25.00
2022-12-09T01:52:50.566Z,23.40
2022-12-09T01:57:53.694Z,23.97
2022-12-09T02:02:58.075Z,21.30
2022-12-09T02:08:02.804Z,25.10
2022-12-09T02:13:12.330Z,26.40
2022-12-09T02:18:22.423Z,24.87
2022-12-09T02:23:33.172Z,25.30
2022-12-09T02:29:12.565Z,23.23
2022-12-09T02:34:20.421Z,22.57
2022-12-09T02:39:36.620Z,23.20
2022-12-09T02:44:41.831Z,20.77
2022-12-09T02:49:51.940Z,22.20
2022-12-09T02:54:57.372Z,23.57
2022-12-09T03:00:00.696Z,18.73
2022-12-09T03:05:14.273Z,17.93
2022-12-09T03:10:23.002Z,17.00
2022-12-09T03:15:29.846Z,18.37
2022-12-09T03:20:38.647Z,18.57
2022-12-09T03:25:45.544Z,14.00
2022-12-09T03:30:49.784Z,16.17
2022-12-09T03:35:58.186Z,14.17
2022-12-09T03:41:19.721Z,15.53
2022-12-09T03:46:23.929Z,14.07
2022-12-09T03:51:34.712Z,14.83
2022-12-09T03:56:41.756Z,13.73
2022-12-09T04:01:46.449Z,16.37
2022-12-09T04:06:53.858Z,14.47
2022-12-09T04:11:59.793Z,14.00
2022-12-09T04:17:03.456Z,15.73
2022-12-09T04:22:07.867Z,16.20
2022-12-09T04:27:12.726Z,17.47
2022-12-09T04:32:15.864Z,16.57
2022-12-09T04:37:20.268Z,16.20
2022-12-09T04:42:23.310Z,15.63
2022-12-09T04:47:26.357Z,17.67
2022-12-09T04:52:30.831Z,17.63
2022-12-09T04:57:34.092Z,15.83
2022-12-09T05:02:38.130Z,15.63
2022-12-09T05:07:43.108Z,15.07
2022-12-09T05:12:46.436Z,13.57
2022-12-09T05:17:49.838Z,15.20
2022-12-09T05:22:56.696Z,14.17
2022-12-09T05:28:00.583Z,14.60
2022-12-09T05:33:04.233Z,14.57
2022-12-09T05:38:09.054Z,13.47
2022-12-09T05:43:12.114Z,13.93
2022-12-09T05:48:15.627Z,12.20
2022-12-09T05:53:20.388Z,14.33
2022-12-09T05:58:23.586Z,12.97
2022-12-09T06:03:40.952Z,12.73
2022-12-09T06:08:47.304Z,14.23
2022-12-09T06:13:51.349Z,15.53
2022-12-09T06:18:55.175Z,14.27
2022-12-09T06:23:59.987Z,13.33
2022-12-09T06:29:03.603Z,15.27
2022-12-09T06:34:06.902Z,15.77
2022-12-09T06:39:11.464Z,16.23
2022-12-09T06:44:21.747Z,15.33
2022-12-09T06:49:29.432Z,13.20
2022-12-09T06:54:34.069Z,15.40
2022-12-09T06:59:37.548Z,14.83
2022-12-09T07:04:40.729Z,15.50
2022-12-09T07:09:45.803Z,14.93
2022-12-09T07:14:49.754Z,18.73
2022-12-09T07:19:53.510Z,13.33
2022-12-09T07:24:58.042Z,16.23
2022-12-09T07:30:01.393Z,17.97
2022-12-09T07:35:05.172Z,14.47
2022-12-09T07:40:10.530Z,15.47
2022-12-09T07:45:14.620Z,15.27
2022-12-09T07:50:17.907Z,16.23
2022-12-09T07:55:22.866Z,13.37
2022-12-09T08:00:28.705Z,17.60
2022-12-09T08:05:31.855Z,17.13
2022-12-09T08:10:37.037Z,18.77
2022-12-09T08:15:40.679Z,19.70
2022-12-09T08:20:43.817Z,20.40
2022-12-09T08:25:54.329Z,22.40
2022-12-09T08:30:58.339Z,20.17
2022-12-09T08:36:02.014Z,24.77
2022-12-09T08:41:13.341Z,22.33
2022-12-09T08:46:17.164Z,24.80
2022-12-09T08:51:20.907Z,22.97
2022-12-09T08:56:28.012Z,23.83
2022-12-09T09:01:35.629Z,23.57
2022-12-09T09:06:41.491Z,29.37
2022-12-09T09:11:46.694Z,22.73
2022-12-09T09:16:50.076Z,28.47
2022-12-09T09:21:53.943Z,27.50
2022-12-09T09:26:58.954Z,31.93
2022-12-09T09:32:02.813Z,31.57
2022-12-09T09:37:06.218Z,26.53
2022-12-09T09:42:30.907Z,29.07
2022-12-09T09:47:39.703Z,32.20
2022-12-09T09:52:44.019Z,29.20
2022-12-09T09:57:53.687Z,25.80
2022-12-09T10:03:02.544Z,26.27
2022-12-09T10:08:23.769Z,31.90
2022-12-09T10:13:44.331Z,28.73
2022-12-09T10:19:07.735Z,28.53
2022-12-09T10:24:24.943Z,28.27
2022-12-09T10:29:42.804Z,26.50
2022-12-09T10:34:47.748Z,26.73
2022-12-09T10:39:53.677Z,24.90
2022-12-09T10:45:07.912Z,24.97
2022-12-09T10:50:27.396Z,27.03
2022-12-09T10:55:35.834Z,28.93
2022-12-09T11:00:40.444Z,25.90
2022-12-09T11:05:43.944Z,21.67
2022-12-09T11:10:50.467Z,23.43
2022-12-09T11:15:59.456Z,22.03
2022-12-09T11:21:05.876Z,23.20
2022-12-09T11:26:24.524Z,23.30
2022-12-09T11:31:33.789Z,22.13
2022-12-09T11:36:44.373Z,23.33
2022-12-09T11:42:11.501Z,23.63
2022-12-09T11:47:27.825Z,23.33
2022-12-09T11:52:32.169Z,23.40
2022-12-09T11:57:37.933Z,22.23
2022-12-09T12:02:48.164Z,21.00
2022-12-09T12:08:02.154Z,18.33
2022-12-09T12:13:13.454Z,23.17
2022-12-09T12:18:20.450Z,20.07
2022-12-09T12:23:42.650Z,18.93
2022-12-09T12:29:07.486Z,18.83
2022-12-09T12:34:26.705Z,18.17
2022-12-09T12:39:43.961Z,21.37
2022-12-09T12:45:10.679Z,20.03
2022-12-09T12:50:43.373Z,21.43
2022-12-09T12:55:56.413Z,23.47
2022-12-09T13:01:05.302Z,18.23
2022-12-09T13:06:15.026Z,18.80
2022-12-09T13:11:22.820Z,21.13
2022-12-09T13:16:29.147Z,21.20
2022-12-09T13:21:34.027Z,25.53
2022-12-09T13:26:45.659Z,21.20
2022-12-09T13:31:56.884Z,20.90
2022-12-09T13:37:01.355Z,24.77
2022-12-09T13:42:21.698Z,25.13
2022-12-09T13:47:34.951Z,23.27
2022-12-09T13:52:50.455Z,25.83
2022-12-09T13:58:12.711Z,21.63
2022-12-09T14:03:27.003Z,22.90
2022-12-09T14:08:35.794Z,24.77
2022-12-09T14:13:38.970Z,26.93
2022-12-09T14:18:42.939Z,27.60
2022-12-09T14:24:19.406Z,24.97
2022-12-09T14:29:52.623Z,25.53
2022-12-09T14:35:07.268Z,30.53
2022-12-09T14:40:31.046Z,25.57
2022-12-09T14:45:48.530Z,29.23
2022-12-09T14:51:07.889Z,23.93
2022-12-09T14:56:18.259Z,25.73
2022-12-09T15:01:22.889Z,29.33
2022-12-09T15:06:28.890Z,49.20
2022-12-09T15:11:35.393Z,82.53
2022-12-09T15:16:47.698Z,47.53
2022-12-09T15:21:53.960Z,94.20
2022-12-09T15:27:02.097Z,96.30
2022-12-09T15:32:21.230Z,76.80
2022-12-09T15:37:28.388Z,99.87
2022-12-09T15:42:35.332Z,141.07
2022-12-09T15:47:43.550Z,161.90
2022-12-09T15:52:52.365Z,31.63
2022-12-09T15:58:00.493Z,48.33
2022-12-09T16:03:06.469Z,62.53
2022-12-09T16:08:10.849Z,40.50
2022-12-09T16:13:16.206Z,25.10
2022-12-09T16:18:26.206Z,29.30
2022-12-09T16:23:30.135Z,29.70
2022-12-09T16:28:33.184Z,17.97
2022-12-09T16:33:41.115Z,19.97
2022-12-09T16:39:05.294Z,23.60
2022-12-09T16:44:19.861Z,24.03
2022-12-09T16:49:25.394Z,24.63
2022-12-09T16:54:31.192Z,21.93
2022-12-09T16:59:38.169Z,20.53
2022-12-09T17:04:42.921Z,20.83
2022-12-09T17:09:46.003Z,20.77
2022-12-09T17:14:49.900Z,21.27
2022-12-09T17:19:55.374Z,21.17
2022-12-09T17:24:58.499Z,20.60
2022-12-09T17:30:01.499Z,20.63
2022-12-09T17:35:12.052Z,22.00
2022-12-09T17:40:15.797Z,23.07
2022-12-09T17:45:18.977Z,24.37
2022-12-09T17:50:23.335Z,26.33
2022-12-09T17:55:26.418Z,25.37
2022-12-09T18:00:30.133Z,26.83
2022-12-09T18:05:37.647Z,29.83
2022-12-09T18:10:40.757Z,29.30
2022-12-09T18:15:43.775Z,30.63
2022-12-09T18:20:48.180Z,28.57
2022-12-09T18:25:51.305Z,24.60
2022-12-09T18:30:56.296Z,27.63
2022-12-09T18:36:00.750Z,24.77
2022-12-09T18:41:04.688Z,25.87
2022-12-09T18:46:10.924Z,24.80
2022-12-09T18:51:20.529Z,24.80
2022-12-09T18:56:25.136Z,26.00
2022-12-09T19:01:30.077Z,29.43
2022-12-09T19:06:35.811Z,33.80
2022-12-09T19:11:40.651Z,35.47
2022-12-09T19:16:44.417Z,30.03
2022-12-09T19:21:49.302Z,30.17
2022-12-09T19:26:53.876Z,31.90
2022-12-09T19:31:58.457Z,32.47
2022-12-09T19:37:03.355Z,30.27
2022-12-09T19:42:06.439Z,29.77
2022-12-09T19:47:09.386Z,28.97
2022-12-09T19:52:14.017Z,29.13
2022-12-09T19:57:17.032Z,27.07
2022-12-09T20:02:20.609Z,31.70
2022-12-09T20:07:25.025Z,33.37
2022-12-09T20:12:28.140Z,29.87
2022-12-09T20:17:31.177Z,33.97
2022-12-09T20:22:35.669Z,31.10
2022-12-09T20:27:38.647Z,43.17
2022-12-09T20:32:43.845Z,43.50
2022-12-09T20:37:48.233Z,40.57
2022-12-09T20:42:51.209Z,31.07
2022-12-09T20:47:54.197Z,34.40
2022-12-09T20:53:01.716Z,39.77
2022-12-09T20:58:04.719Z,34.70
2022-12-09T21:03:07.767Z,40.40
2022-12-09T21:08:12.368Z,38.20
2022-12-09T21:13:16.012Z,36.53
2022-12-09T21:18:18.969Z,30.27
2022-12-09T21:23:33.695Z,33.03
2022-12-09T21:28:38.800Z,44.63
2022-12-09T21:33:42.667Z,37.10
2022-12-09T21:38:47.513Z,35.50
2022-12-09T21:43:50.575Z,37.07
2022-12-09T21:49:01.579Z,30.87
2022-12-09T21:54:07.972Z,37.07
2022-12-09T21:59:11.949Z,34.60
2022-12-09T22:04:17.509Z,39.07
2022-12-09T22:09:21.964Z,35.47
2022-12-09T22:14:24.965Z,34.10
2022-12-09T22:19:27.994Z,36.67
2022-12-09T22:24:32.462Z,38.80
2022-12-09T22:29:36.801Z,34.33
2022-12-09T22:34:39.842Z,33.13
2022-12-09T22:39:45.295Z,31.83
2022-12-09T22:44:48.459Z,37.27
2022-12-09T22:49:51.469Z,36.03
2022-12-09T22:54:55.816Z,37.00
2022-12-09T22:59:58.915Z,34.70
2022-12-09T23:05:01.911Z,34.40
2022-12-09T23:10:07.604Z,38.67
2022-12-09T23:15:11.879Z,34.97
2022-12-09T23:20:14.934Z,34.17
2022-12-09T23:25:19.412Z,37.70
2022-12-09T23:30:22.392Z,38.00
2022-12-09T23:35:28.203Z,48.80
2022-12-09T23:40:32.633Z,47.20
2022-12-09T23:45:35.708Z,40.07
2022-12-09T23:50:38.715Z,44.60
2022-12-09T23:55:44.406Z,42.83
